Time;durP1;ratioP1;P1;durP2;ratioP2;P2;SDS_P1;SDS_P2;PMS_P1;PMS_P2;Temp;Humidity;BMP_temperature;BMP_pressure;BME280_temperature;BME280_humidity;BME280_pressure;Samples;Min_cycle;Max_cycle;Signal;HPM_P1;HPM_P2
2021/06/12 18:30:08;;;;;;;3.70;2.60;;;;;;;;;;1924905;74;20345;-80
2021/06/12 18:32:34;;;;;;;4.90;2.60;;;;;;;;;;1919889;75;20093;-81
2021/06/12 18:34:59;;;;;;;3.47;2.13;;;;;;;;;;1917179;75;20076;-80
2021/06/12 18:37:25;;;;;;;4.53;2.45;;;;;;;;;;1913789;75;20095;-80
2021/06/12 18:39:50;;;;;;;3.65;2.58;;;;;;;;;;1951066;56;110303;-70
2021/06/12 18:42:16;;;;;;;5.22;4.05;;;;;;;;;;1964862;56;20179;-70
2021/06/12 18:44:41;;;;;;;2.92;2.28;;;;;;;;;;1906650;75;20502;-71
2021/06/12 18:47:09;;;;;;;5.72;3.33;;;;;;;;;;1907801;75;20092;-70
2021/06/12 18:49:34;;;;;;;3.95;2.17;;;;;;;;;;1905454;75;20085;-73
2021/06/12 18:53:28;;;;;;;4.32;2.70;;;;;;;;;;2001596;56;71198;-67
2021/06/12 18:57:48;;;;;;;3.35;2.20;;;;;;;;;;2027921;55;20166;-68
2021/06/12 19:00:15;;;;;;;4.40;2.65;;;;;;;;;;1975046;56;103579;-66
2021/06/12 19:02:42;;;;;;;3.90;2.17;;;;;;;;;;1905259;75;20093;-71
2021/06/12 19:05:09;;;;;;;4.50;2.58;;;;;;;;;;1906018;75;20092;-68
2021/06/12 19:07:35;;;;;;;3.80;2.72;;;;;;;;;;1906035;75;20096;-66
2021/06/12 19:10:01;;;;;;;4.65;3.03;;;;;;;;;;1906023;75;20093;-68
2021/06/12 19:12:27;;;;;;;4.45;2.50;;;;;;;;;;1905895;75;20093;-67
2021/06/12 19:14:55;;;;;;;4.20;2.50;;;;;;;;;;1905987;75;20084;-67
2021/06/12 19:17:21;;;;;;;4.43;3.38;;;;;;;;;;1905889;75;20120;-67
2021/06/12 19:19:47;;;;;;;5.38;3.67;;;;;;;;;;1902710;75;20104;-67
2021/06/12 19:22:13;;;;;;;3.75;2.65;;;;;;;;;;1905148;75;20105;-67
2021/06/12 19:24:40;;;;;;;4.05;2.40;;;;;;;;;;1947373;56;20100;-67
2021/06/12 19:27:07;;;;;;;6.88;6.18;;;;;;;;;;1935888;56;20085;-67
2021/06/12 19:29:33;;;;;;;4.15;2.72;;;;;;;;;;1908210;56;20113;-80
2021/06/12 19:32:01;;;;;;;5.13;3.00;;;;;;;;;;1912770;75;20101;-82
2021/06/12 19:34:31;;;;;;;6.32;2.60;;;;;;;;;;1935142;56;20089;-78
2021/06/12 19:37:01;;;;;;;5.53;3.40;;;;;;;;;;1910901;75;20092;-79
2021/06/12 19:39:30;;;;;;;4.03;2.35;;;;;;;;;;1912525;75;20097;-80
2021/06/12 19:41:56;;;;;;;5.68;2.58;;;;;;;;;;1911011;75;20581;-77
2021/06/12 19:44:23;;;;;;;5.72;3.72;;;;;;;;;;1909768;75;20103;-78
2021/06/12 19:46:51;;;;;;;4.65;3.13;;;;;;;;;;1904148;75;20414;-80
2021/06/12 19:49:18;;;;;;;4.43;2.67;;;;;;;;;;1903000;75;20094;-78
2021/06/12 19:51:45;;;;;;;4.05;2.63;;;;;;;;;;1894800;75;20101;-80
2021/06/12 19:54:11;;;;;;;4.53;2.55;;;;;;;;;;1905095;75;20158;-77
2021/06/12 19:56:39;;;;;;;4.70;2.30;;;;;;;;;;1909068;75;20470;-78
2021/06/12 19:59:05;;;;;;;3.75;2.38;;;;;;;;;;1903804;75;20502;-78
2021/06/12 20:01:31;;;;;;;4.97;2.67;;;;;;;;;;1909359;75;20097;-78
2021/06/12 20:03:58;;;;;;;3.95;2.38;;;;;;;;;;1908602;75;20080;-79
2021/06/12 20:06:27;;;;;;;4.90;3.00;;;;;;;;;;1904538;75;20727;-78
2021/06/12 20:08:53;;;;;;;5.00;2.72;;;;;;;;;;1909295;75;20085;-77
2021/06/12 20:11:21;;;;;;;4.65;3.40;;;;;;;;;;1902973;75;20108;-79
2021/06/12 20:13:47;;;;;;;5.85;3.03;;;;;;;;;;1910290;75;20093;-78
2021/06/12 20:16:13;;;;;;;5.95;3.58;;;;;;;;;;1910688;75;20097;-77
2021/06/12 20:18:40;;;;;;;5.78;3.80;;;;;;;;;;1911071;75;20088;-78
2021/06/12 20:21:06;;;;;;;8.88;7.78;;;;;;;;;;1910703;75;20092;-76
2021/06/12 20:23:34;;;;;;;6.43;4.40;;;;;;;;;;1903306;75;20094;-80
2021/06/12 20:26:00;;;;;;;5.63;3.55;;;;;;;;;;1898470;75;20086;-79
2021/06/12 20:28:27;;;;;;;5.32;3.53;;;;;;;;;;1904445;75;20085;-78
2021/06/12 20:30:55;;;;;;;5.53;3.95;;;;;;;;;;1909142;75;20088;-79
2021/06/12 20:33:21;;;;;;;5.28;3.80;;;;;;;;;;1909093;75;20151;-78
2021/06/12 20:35:48;;;;;;;6.15;5.03;;;;;;;;;;1908283;75;20131;-78
2021/06/12 20:38:16;;;;;;;5.50;4.30;;;;;;;;;;1909629;75;20100;-78
2021/06/12 20:40:46;;;;;;;6.13;3.47;;;;;;;;;;1910559;75;20097;-78
2021/06/12 20:43:13;;;;;;;5.82;3.50;;;;;;;;;;1910729;75;20096;-78
2021/06/12 20:45:39;;;;;;;5.50;3.97;;;;;;;;;;1910415;75;20092;-78
2021/06/12 20:48:07;;;;;;;5.60;3.50;;;;;;;;;;1904989;75;20100;-78
2021/06/12 20:50:33;;;;;;;5.32;3.85;;;;;;;;;;1905108;75;20096;-78
2021/06/12 20:53:00;;;;;;;4.65;3.72;;;;;;;;;;1904810;75;20146;-79
2021/06/12 20:55:26;;;;;;;4.28;3.45;;;;;;;;;;1910935;75;20092;-79
2021/06/12 20:57:55;;;;;;;5.55;4.47;;;;;;;;;;1911405;75;20096;-78
2021/06/12 21:00:22;;;;;;;5.85;4.35;;;;;;;;;;1909065;75;20159;-78
2021/06/12 21:02:48;;;;;;;4.82;3.83;;;;;;;;;;1907099;75;20158;-76
2021/06/12 21:05:16;;;;;;;5.40;4.18;;;;;;;;;;1907717;75;20077;-78
2021/06/12 21:07:44;;;;;;;7.30;4.55;;;;;;;;;;1907727;75;20150;-77
2021/06/12 21:10:12;;;;;;;5.68;3.80;;;;;;;;;;1908023;75;20376;-79
2021/06/12 21:12:39;;;;;;;4.78;3.90;;;;;;;;;;1907980;75;20093;-78
2021/06/12 21:15:08;;;;;;;5.88;4.75;;;;;;;;;;1908000;75;20085;-77
2021/06/12 21:17:34;;;;;;;5.13;3.97;;;;;;;;;;1905820;75;20085;-78
2021/06/12 21:20:00;;;;;;;6.22;4.15;;;;;;;;;;1903382;75;20093;-78
2021/06/12 21:22:27;;;;;;;8.15;5.28;;;;;;;;;;1907969;75;20084;-78
2021/06/12 21:24:53;;;;;;;6.05;4.60;;;;;;;;;;1908005;75;20089;-78
2021/06/12 21:27:19;;;;;;;6.13;4.25;;;;;;;;;;1908055;75;20126;-79
2021/06/12 21:29:46;;;;;;;5.35;3.97;;;;;;;;;;1906846;75;20155;-79
2021/06/12 21:32:14;;;;;;;4.95;4.07;;;;;;;;;;1909062;75;20092;-79
2021/06/12 21:34:40;;;;;;;5.35;4.50;;;;;;;;;;1908058;75;20092;-78
2021/06/12 21:37:08;;;;;;;7.25;5.32;;;;;;;;;;1904162;75;20156;-78
2021/06/12 21:39:36;;;;;;;7.07;4.97;;;;;;;;;;1904170;75;20097;-79
2021/06/12 21:42:03;;;;;;;5.25;4.03;;;;;;;;;;1899946;75;20093;-77
2021/06/12 21:44:30;;;;;;;5.68;4.20;;;;;;;;;;1903809;75;20097;-77
2021/06/12 21:46:56;;;;;;;5.03;3.75;;;;;;;;;;1907715;75;20093;-77
2021/06/12 21:49:24;;;;;;;6.75;4.63;;;;;;;;;;1908264;75;20092;-77
2021/06/12 21:51:50;;;;;;;6.07;4.20;;;;;;;;;;1906268;75;20652;-77
2021/06/12 21:54:17;;;;;;;5.55;4.13;;;;;;;;;;1908249;75;20099;-78
2021/06/12 21:56:45;;;;;;;5.15;4.22;;;;;;;;;;1907301;75;20100;-78
2021/06/12 21:59:11;;;;;;;6.10;3.90;;;;;;;;;;1908072;75;20091;-78
2021/06/12 22:01:37;;;;;;;5.82;4.20;;;;;;;;;;1902859;60;20100;-79
2021/06/12 22:04:04;;;;;;;5.93;4.10;;;;;;;;;;1908123;75;20092;-77
2021/06/12 22:06:31;;;;;;;6.43;4.07;;;;;;;;;;1907786;75;20085;-77
2021/06/12 22:08:58;;;;;;;6.15;4.28;;;;;;;;;;1907686;75;20103;-77
2021/06/12 22:11:24;;;;;;;7.30;4.57;;;;;;;;;;1906783;75;20107;-78
2021/06/12 22:13:51;;;;;;;6.60;4.30;;;;;;;;;;1907101;75;20104;-77
2021/06/12 22:16:17;;;;;;;7.95;5.18;;;;;;;;;;1906659;75;20446;-78
2021/06/12 22:18:43;;;;;;;6.75;5.57;;;;;;;;;;1909091;75;20084;-77
2021/06/12 22:21:16;;;;;;;6.30;4.70;;;;;;;;;;1908298;75;20174;-77
2021/06/12 22:23:44;;;;;;;6.10;4.47;;;;;;;;;;1907893;75;20085;-78
2021/06/12 22:26:14;;;;;;;5.80;4.22;;;;;;;;;;1907771;75;20084;-78
2021/06/12 22:28:40;;;;;;;7.97;4.57;;;;;;;;;;1904417;75;20089;-79
2021/06/12 22:31:07;;;;;;;5.15;4.38;;;;;;;;;;1907608;75;20096;-77
2021/06/12 22:33:34;;;;;;;5.30;4.25;;;;;;;;;;1902655;75;20138;-78
2021/06/12 22:36:00;;;;;;;7.13;4.72;;;;;;;;;;1903765;75;20097;-77
2021/06/12 22:38:26;;;;;;;6.22;5.15;;;;;;;;;;1908852;75;20561;-78
2021/06/12 22:40:54;;;;;;;5.35;4.20;;;;;;;;;;1908425;75;20111;-78
2021/06/12 22:43:23;;;;;;;5.55;4.43;;;;;;;;;;1903522;75;20633;-78
2021/06/12 22:45:49;;;;;;;5.75;4.32;;;;;;;;;;1901718;75;20085;-78
2021/06/12 22:48:15;;;;;;;6.53;4.55;;;;;;;;;;1899697;75;20113;-78
2021/06/12 22:50:43;;;;;;;6.80;4.05;;;;;;;;;;1899835;75;20582;-77
2021/06/12 22:53:09;;;;;;;6.47;4.30;;;;;;;;;;1902130;75;20094;-79
2021/06/12 22:55:36;;;;;;;6.35;4.70;;;;;;;;;;1906687;75;20090;-79
2021/06/12 22:58:04;;;;;;;8.18;5.28;;;;;;;;;;1906821;75;20093;-77
2021/06/12 23:00:30;;;;;;;5.28;4.53;;;;;;;;;;1906693;75;20093;-77
2021/06/12 23:02:57;;;;;;;7.32;5.78;;;;;;;;;;1907576;75;20097;-77
2021/06/12 23:05:23;;;;;;;5.68;4.55;;;;;;;;;;1907474;75;20100;-79
2021/06/12 23:07:49;;;;;;;6.10;4.82;;;;;;;;;;1908082;75;20093;-78
2021/06/12 23:10:18;;;;;;;8.00;5.53;;;;;;;;;;1907619;75;20422;-78
2021/06/12 23:12:45;;;;;;;7.55;5.95;;;;;;;;;;1910730;75;20077;-76
2021/06/12 23:15:14;;;;;;;5.85;4.40;;;;;;;;;;1911606;75;20112;-76
2021/06/12 23:17:41;;;;;;;6.72;4.55;;;;;;;;;;1911746;75;20093;-76
2021/06/12 23:20:09;;;;;;;6.72;4.53;;;;;;;;;;1911443;67;20438;-77
2021/06/12 23:22:37;;;;;;;6.50;4.95;;;;;;;;;;1906165;75;20127;-77
2021/06/12 23:25:05;;;;;;;6.00;4.53;;;;;;;;;;1907653;75;20142;-77
2021/06/12 23:27:31;;;;;;;5.30;4.38;;;;;;;;;;1907682;75;20097;-78
2021/06/12 23:29:58;;;;;;;7.10;4.75;;;;;;;;;;1907471;75;20095;-79
2021/06/12 23:32:25;;;;;;;5.97;4.32;;;;;;;;;;1907166;75;20160;-78
2021/06/12 23:34:51;;;;;;;7.55;5.05;;;;;;;;;;1907518;75;20143;-78
2021/06/12 23:37:18;;;;;;;6.70;4.40;;;;;;;;;;1907302;75;20598;-79
2021/06/12 23:39:44;;;;;;;6.53;4.47;;;;;;;;;;1907241;75;20100;-78
2021/06/12 23:42:11;;;;;;;6.10;4.25;;;;;;;;;;1907672;75;20104;-76
2021/06/12 23:44:37;;;;;;;6.57;4.75;;;;;;;;;;1907669;75;20124;-77
2021/06/12 23:47:04;;;;;;;5.85;4.78;;;;;;;;;;1902293;75;20081;-77
2021/06/12 23:49:32;;;;;;;6.22;4.75;;;;;;;;;;1904984;75;20089;-79
2021/06/12 23:51:58;;;;;;;6.68;5.05;;;;;;;;;;1907766;75;20089;-78
2021/06/12 23:54:24;;;;;;;7.03;5.00;;;;;;;;;;1907987;75;20104;-76
2021/06/12 23:56:52;;;;;;;7.00;4.75;;;;;;;;;;1907049;75;20105;-77
2021/06/12 23:59:18;;;;;;;6.85;4.57;;;;;;;;;;1908339;75;20234;-77
